Time;durP1;ratioP1;P1;durP2;ratioP2;P2;SDS_P1;SDS_P2;PMS_P1;PMS_P2;Temp;Humidity;BMP_temperature;BMP_pressure;BME280_temperature;BME280_humidity;BME280_pressure;Samples;Min_cycle;Max_cycle;Signal;HPM_P1;HPM_P2
2024/01/14 00:00:10;;;;;;;11.80;6.88;;;;;;;-0.26;100.00;98045.03;6108058;19;20038;-70
2024/01/14 00:02:10;;;;;;;11.07;6.22;;;;;;;-0.33;100.00;98037.38;6107607;19;20002;-70
2024/01/14 00:04:11;;;;;;;12.13;6.72;;;;;;;-0.36;100.00;98034.47;6106694;19;20408;-70
2024/01/14 00:06:11;;;;;;;12.35;6.57;;;;;;;-0.37;100.00;98052.72;6108015;19;19999;-70
2024/01/14 00:08:11;;;;;;;9.75;6.03;;;;;;;-0.42;100.00;98043.91;6108704;19;20239;-70
2024/01/14 00:10:11;;;;;;;10.77;5.72;;;;;;;-0.31;100.00;98042.50;6107520;19;20538;-70
2024/01/14 00:12:12;;;;;;;11.63;6.25;;;;;;;-0.33;100.00;98033.88;6107853;19;20096;-70
2024/01/14 00:14:12;;;;;;;12.23;6.20;;;;;;;-0.37;100.00;98035.59;6108327;19;20019;-70
2024/01/14 00:16:12;;;;;;;9.65;5.97;;;;;;;-0.41;100.00;98038.16;6108307;19;21334;-70
2024/01/14 00:18:13;;;;;;;12.05;6.47;;;;;;;-0.42;100.00;98033.81;6108980;19;20006;-70
2024/01/14 00:20:13;;;;;;;11.35;5.97;;;;;;;-0.45;100.00;98028.22;6107984;19;20062;-70
2024/01/14 00:22:16;;;;;;;13.13;7.03;;;;;;;-0.47;100.00;98016.88;6109488;19;20020;-70
2024/01/14 00:24:16;;;;;;;;;;;;;;;-0.47;100.00;98016.88;6108669;19;20355;-70
2024/01/14 00:26:16;;;;;;;13.13;7.07;;;;;;;-0.51;100.00;98024.84;6109397;19;19974;-70
2024/01/14 00:28:16;;;;;;;14.10;6.78;;;;;;;-0.57;100.00;98020.72;6109720;19;20011;-70
2024/01/14 00:30:17;;;;;;;12.32;6.90;;;;;;;-0.56;100.00;98019.59;6109229;19;20011;-70
2024/01/14 00:32:17;;;;;;;11.57;6.57;;;;;;;-0.61;100.00;98014.28;6108900;19;20349;-70
2024/01/14 00:34:17;;;;;;;12.50;6.93;;;;;;;-0.54;100.00;98028.22;6107353;19;20003;-70
2024/01/14 00:36:18;;;;;;;12.23;6.90;;;;;;;-0.48;100.00;98012.56;6108673;19;20006;-70
2024/01/14 00:38:18;;;;;;;16.23;8.10;;;;;;;-0.51;100.00;98015.91;6109169;19;20035;-70
2024/01/14 00:40:18;;;;;;;12.30;7.05;;;;;;;-0.50;100.00;97999.28;6108959;19;20013;-70
2024/01/14 00:42:19;;;;;;;13.98;7.45;;;;;;;-0.59;100.00;97988.38;6109016;19;20006;-70
2024/01/14 00:44:19;;;;;;;14.88;7.65;;;;;;;-0.55;100.00;97994.00;6107564;19;20347;-70
2024/01/14 00:46:19;;;;;;;14.70;7.95;;;;;;;-0.57;100.00;97980.75;6107837;19;20030;-70
2024/01/14 00:48:20;;;;;;;13.43;7.65;;;;;;;-0.61;100.00;97987.13;6109393;19;20007;-70
2024/01/14 00:50:21;;;;;;;13.48;6.88;;;;;;;-0.65;100.00;97988.88;6107983;19;20027;-70
2024/01/14 00:52:22;;;;;;;14.20;8.27;;;;;;;-0.59;100.00;97987.59;6108935;19;20454;-70
2024/01/14 00:54:23;;;;;;;12.38;6.95;;;;;;;-0.63;100.00;97987.44;6105996;19;20013;-70
2024/01/14 00:56:23;;;;;;;16.40;8.07;;;;;;;-0.62;100.00;97991.75;6107591;19;20006;-70
2024/01/14 00:58:23;;;;;;;13.50;7.07;;;;;;;-0.55;100.00;97977.69;6108538;19;20010;-70
2024/01/14 01:00:24;;;;;;;13.65;7.32;;;;;;;-0.50;100.00;97971.28;6108486;19;20017;-70
2024/01/14 01:02:25;;;;;;;14.30;7.15;;;;;;;-0.43;100.00;97971.63;6108498;19;20014;-70
2024/01/14 01:04:25;;;;;;;11.55;6.75;;;;;;;-0.46;100.00;97975.00;6106623;19;21393;-70
2024/01/14 01:06:25;;;;;;;12.98;6.53;;;;;;;-0.55;100.00;97974.19;6107946;19;20034;-70
2024/01/14 01:08:26;;;;;;;10.82;6.60;;;;;;;-0.62;100.00;97980.09;6108782;19;20010;-70
2024/01/14 01:10:26;;;;;;;14.02;7.57;;;;;;;-0.58;100.00;97983.75;6108686;19;20010;-70
2024/01/14 01:12:27;;;;;;;13.23;7.45;;;;;;;-0.58;100.00;97972.88;6108768;19;19998;-70
2024/01/14 01:14:27;;;;;;;14.35;7.15;;;;;;;-0.58;100.00;97965.56;6106144;19;20363;-70
2024/01/14 01:16:27;;;;;;;14.60;8.07;;;;;;;-0.60;100.00;97970.50;6107711;19;20003;-70
2024/01/14 01:18:28;;;;;;;13.60;7.40;;;;;;;-0.58;100.00;97970.16;6106702;19;19998;-70
2024/01/14 01:20:28;;;;;;;13.88;7.57;;;;;;;-0.46;100.00;97973.06;6108626;19;20003;-70
2024/01/14 01:22:29;;;;;;;12.45;6.53;;;;;;;-0.50;100.00;97965.88;6107842;19;20078;-70
2024/01/14 01:24:29;;;;;;;11.15;6.53;;;;;;;-0.49;100.00;97957.41;6106195;19;20337;-70
2024/01/14 01:26:29;;;;;;;12.90;7.32;;;;;;;-0.52;100.00;97947.16;6107799;19;20003;-70
2024/01/14 01:28:29;;;;;;;13.98;7.72;;;;;;;-0.54;100.00;97945.88;6106863;19;20013;-70
2024/01/14 01:30:30;;;;;;;12.70;6.57;;;;;;;-0.55;100.00;97941.59;6108179;19;20494;-70
2024/01/14 01:32:30;;;;;;;14.40;8.48;;;;;;;-0.58;100.00;97923.97;6105650;19;20074;-70
2024/01/14 01:34:30;;;;;;;15.50;7.75;;;;;;;-0.61;100.00;97930.84;6106101;19;20054;-70
2024/01/14 01:36:31;;;;;;;12.63;7.32;;;;;;;-0.63;100.00;97929.59;6108092;19;20003;-70
2024/01/14 01:38:32;;;;;;;14.73;7.70;;;;;;;-0.62;100.00;97934.69;6107932;19;20009;-70
2024/01/14 01:40:32;;;;;;;15.13;7.38;;;;;;;-0.66;100.00;97939.19;6108174;19;20437;-70
2024/01/14 01:42:34;;;;;;;16.17;7.97;;;;;;;-0.60;100.00;97951.47;6108843;19;20009;-70
2024/01/14 01:44:34;;;;;;;14.55;7.50;;;;;;;-0.63;100.00;97943.97;6106751;19;20026;-70
2024/01/14 01:46:35;;;;;;;16.40;8.35;;;;;;;-0.63;100.00;97941.25;6107962;19;20455;-70
2024/01/14 01:48:37;;;;;;;12.60;7.55;;;;;;;-0.47;100.00;97943.50;6095169;19;20014;-70
2024/01/14 01:50:37;;;;;;;13.07;7.43;;;;;;;-0.52;100.00;97938.22;6105541;19;20002;-70
2024/01/14 01:52:39;;;;;;;13.57;8.30;;;;;;;-0.57;100.00;97942.69;6107424;19;20339;-70
2024/01/14 01:54:40;;;;;;;16.15;7.97;;;;;;;-0.52;100.00;97940.94;6105839;19;20022;-70
2024/01/14 01:56:41;;;;;;;16.45;8.55;;;;;;;-0.57;100.00;97941.91;6107599;19;20030;-70
2024/01/14 01:58:42;;;;;;;16.58;8.82;;;;;;;-0.53;100.00;97945.56;6104922;19;20427;-70
2024/01/14 02:00:42;;;;;;;14.38;7.60;;;;;;;-0.51;100.00;97947.97;6106400;19;20002;-70
2024/01/14 02:02:43;;;;;;;15.70;8.40;;;;;;;-0.50;100.00;97944.91;6105468;19;20007;-70
2024/01/14 02:04:45;;;;;;;15.25;7.75;;;;;;;-0.49;100.00;97957.41;6106466;19;20011;-70
2024/01/14 02:06:45;;;;;;;14.20;7.97;;;;;;;-0.60;100.00;97937.88;6106325;19;20090;-70
2024/01/14 02:08:46;;;;;;;13.07;7.53;;;;;;;-0.55;100.00;97942.38;6104257;19;20006;-70
2024/01/14 02:10:47;;;;;;;13.65;8.00;;;;;;;-0.54;100.00;97943.19;6107084;19;20010;-70
2024/01/14 02:12:47;;;;;;;14.10;8.25;;;;;;;-0.52;100.00;97943.66;6106928;19;20020;-70
2024/01/14 02:14:47;;;;;;;12.48;7.45;;;;;;;-0.55;100.00;97949.72;6105716;19;20011;-70
2024/01/14 02:16:48;;;;;;;16.23;7.63;;;;;;;-0.48;100.00;97939.19;6105634;19;20002;-70
2024/01/14 02:18:48;;;;;;;11.70;7.15;;;;;;;-0.36;100.00;97942.06;6106716;19;20010;-70
2024/01/14 02:20:49;;;;;;;13.85;6.95;;;;;;;-0.33;100.00;97936.00;6105388;19;19999;-70
2024/01/14 02:22:52;;;;;;;11.90;7.50;;;;;;;-0.31;100.00;97940.00;6107858;19;20029;-70
2024/01/14 02:24:53;;;;;;;13.30;6.78;;;;;;;-0.35;100.00;97940.94;6105319;19;20826;-70
2024/01/14 02:26:53;;;;;;;10.85;6.70;;;;;;;-0.29;100.00;97937.75;6104906;19;20030;-70
2024/01/14 02:28:54;;;;;;;10.73;6.40;;;;;;;-0.27;100.00;97942.84;6105139;19;20216;-70
2024/01/14 02:30:55;;;;;;;14.15;6.75;;;;;;;-0.30;100.00;97933.44;6105970;19;20009;-70
2024/01/14 02:32:56;;;;;;;17.50;7.03;;;;;;;-0.35;100.00;97932.78;6104992;19;20107;-70
2024/01/14 02:34:56;;;;;;;13.18;6.13;;;;;;;-0.42;100.00;97930.53;6105230;19;20018;-70
2024/01/14 02:36:56;;;;;;;12.82;6.88;;;;;;;-0.44;100.00;97907.53;6101764;19;20007;-70
2024/01/14 02:38:57;;;;;;;14.50;7.95;;;;;;;-0.48;100.00;97906.59;6107235;19;20324;-70
2024/01/14 02:40:57;;;;;;;13.60;7.38;;;;;;;-0.53;100.00;97901.28;6106442;19;20593;-70
2024/01/14 02:42:57;;;;;;;18.25;7.40;;;;;;;-0.46;100.00;97910.56;6107622;19;20079;-70
2024/01/14 02:44:57;;;;;;;14.73;8.15;;;;;;;-0.49;100.00;97910.41;6110804;19;20015;-70
2024/01/14 02:46:58;;;;;;;13.32;7.18;;;;;;;-0.50;100.00;97892.50;6109834;19;20002;-70
2024/01/14 02:48:58;;;;;;;12.68;6.85;;;;;;;-0.44;100.00;97888.50;6097537;19;20443;-70
2024/01/14 02:50:58;;;;;;;12.50;5.75;;;;;;;-0.37;100.00;97889.63;6097634;19;20005;-70
2024/01/14 02:52:59;;;;;;;13.88;6.35;;;;;;;-0.38;100.00;97888.03;6096514;19;20010;-70
2024/01/14 02:54:59;;;;;;;13.05;7.03;;;;;;;-0.34;100.00;97885.44;6095818;19;20848;-70
2024/01/14 02:56:59;;;;;;;11.10;5.57;;;;;;;-0.38;100.00;97885.31;6096209;19;20002;-70
2024/01/14 02:59:00;;;;;;;15.55;7.15;;;;;;;-0.47;100.00;97889.94;6097072;19;20003;-70
2024/01/14 03:01:00;;;;;;;12.57;6.63;;;;;;;-0.39;100.00;97891.06;6096760;19;20411;-70
2024/01/14 03:03:00;;;;;;;14.43;7.00;;;;;;;-0.47;100.00;97883.72;6097121;19;20421;-70
2024/01/14 03:05:01;;;;;;;14.25;6.75;;;;;;;-0.50;100.00;97876.97;6096235;19;20005;-70
2024/01/14 03:07:01;;;;;;;11.93;7.05;;;;;;;-0.61;100.00;97883.88;6096255;19;20006;-70
2024/01/14 03:09:01;;;;;;;16.88;8.02;;;;;;;-0.64;100.00;97884.50;6097006;19;20310;-70
2024/01/14 03:11:02;;;;;;;14.02;7.72;;;;;;;-0.65;100.00;97889.16;6096787;19;20022;-70
2024/01/14 03:13:02;;;;;;;11.73;6.78;;;;;;;-0.69;100.00;97861.00;6095757;19;20012;-70
2024/01/14 03:15:03;;;;;;;12.88;7.40;;;;;;;-0.79;100.00;97858.63;6095384;19;20019;-70
2024/01/14 03:17:03;;;;;;;14.73;7.90;;;;;;;-0.82;100.00;97861.97;6095245;19;19994;-70
2024/01/14 03:19:03;;;;;;;13.77;6.85;;;;;;;-0.95;100.00;97861.00;6096460;19;19998;-70
2024/01/14 03:21:04;;;;;;;14.85;7.65;;;;;;;-0.91;100.00;97858.44;6096587;19;20009;-70
2024/01/14 03:23:04;;;;;;;14.27;6.60;;;;;;;-0.94;100.00;97864.50;6095674;19;19999;-70
2024/01/14 03:25:05;;;;;;;12.80;7.10;;;;;;;-0.98;100.00;97858.91;6095528;19;20002;-70
2024/01/14 03:27:05;;;;;;;15.38;7.85;;;;;;;-1.08;100.00;97850.25;6095352;19;20458;-70
2024/01/14 03:29:06;;;;;;;13.57;6.97;;;;;;;-1.11;100.00;97853.63;6095802;19;20345;-70
2024/01/14 03:31:08;;;;;;;12.98;7.05;;;;;;;-1.09;100.00;97848.66;6096593;19;20002;-70
2024/01/14 03:33:08;;;;;;;13.48;7.32;;;;;;;-1.15;100.00;97848.03;6095914;19;20262;-70
2024/01/14 03:35:08;;;;;;;13.63;6.70;;;;;;;-1.16;100.00;97833.66;6095302;19;20029;-70
2024/01/14 03:37:09;;;;;;;13.32;7.05;;;;;;;-1.18;100.00;97838.59;6094938;19;20003;-70
2024/01/14 03:39:09;;;;;;;12.07;7.45;;;;;;;-1.20;100.00;97843.53;6096659;19;20003;-70
2024/01/14 03:41:09;;;;;;;14.50;7.45;;;;;;;-1.22;100.00;97828.69;6096312;19;20035;-70
2024/01/14 03:43:09;;;;;;;12.55;7.05;;;;;;;-1.22;100.00;97829.50;6094435;19;20002;-70
2024/01/14 03:45:10;;;;;;;15.35;7.82;;;;;;;-1.22;100.00;97823.28;6095367;19;20336;-70
2024/01/14 03:47:10;;;;;;;15.13;7.50;;;;;;;-1.19;100.00;97819.91;6095344;19;20429;-70
2024/01/14 03:49:10;;;;;;;15.50;7.35;;;;;;;-1.25;100.00;97818.44;6106915;19;20012;-70
2024/01/14 03:51:11;;;;;;;14.57;7.07;;;;;;;-1.29;100.00;97806.66;6110456;19;20038;-70
2024/01/14 03:53:11;;;;;;;17.92;7.38;;;;;;;-1.26;100.00;97814.16;6110511;19;20611;-70
2024/01/14 03:55:11;;;;;;;12.45;7.07;;;;;;;-1.29;100.00;97812.88;6107613;19;20006;-70
2024/01/14 03:57:12;;;;;;;11.40;6.68;;;;;;;-1.35;100.00;97803.28;6110085;19;20035;-70
2024/01/14 03:59:12;;;;;;;11.48;7.30;;;;;;;-1.31;100.00;97801.53;6109539;19;20111;-70
2024/01/14 04:01:18;;;;;;;13.27;6.47;;;;;;;-1.20;100.00;97802.03;6109566;19;20436;-70
2024/01/14 04:03:19;;;;;;;13.20;7.68;;;;;;;-1.20;100.00;97799.31;6111205;19;20030;-70
2024/01/14 04:05:19;;;;;;;13.07;7.63;;;;;;;-1.19;100.00;97790.84;6109490;19;20003;-70
2024/01/14 04:07:19;;;;;;;11.95;6.60;;;;;;;-1.18;100.00;97802.50;6110268;19;20010;-70
2024/01/14 04:09:20;;;;;;;14.70;6.57;;;;;;;-1.13;100.00;97799.66;6109643;19;20010;-70
2024/01/14 04:11:20;;;;;;;11.60;6.55;;;;;;;-1.04;100.00;97795.03;6110082;19;20030;-70
2024/01/14 04:13:20;;;;;;;12.75;6.97;;;;;;;-1.08;100.00;97795.97;6111010;19;20014;-69
2024/01/14 04:15:22;;;;;;;9.90;5.95;;;;;;;-1.12;100.00;97793.09;6109212;19;20332;-70
2024/01/14 04:17:22;;;;;;;12.68;6.20;;;;;;;-1.11;100.00;97791.97;6109686;19;20014;-70
2024/01/14 04:19:22;;;;;;;13.27;6.40;;;;;;;-1.00;100.00;97814.16;6109548;19;20006;-70
2024/01/14 04:21:24;;;;;;;11.20;5.70;;;;;;;-0.93;100.00;97800.94;6109577;19;20541;-70
2024/01/14 04:23:24;;;;;;;9.20;5.50;;;;;;;-0.83;100.00;97797.88;6109876;19;20412;-70
2024/01/14 04:25:25;;;;;;;12.70;6.90;;;;;;;-0.78;100.00;97794.22;6109291;19;20006;-70
2024/01/14 04:27:25;;;;;;;11.75;5.22;;;;;;;-0.65;100.00;97795.97;6109496;19;20007;-70
2024/01/14 04:29:25;;;;;;;9.55;5.05;;;;;;;-0.52;100.00;97799.63;6109939;19;20529;-70
2024/01/14 04:31:26;;;;;;;10.85;5.82;;;;;;;-0.43;100.00;97795.78;6109000;19;20093;-70
2024/01/14 04:33:26;;;;;;;10.70;5.38;;;;;;;-0.45;100.00;97780.91;6110156;19;20070;-70
2024/01/14 04:35:26;;;;;;;9.95;5.63;;;;;;;-0.38;100.00;97786.66;6108736;19;20355;-70
2024/01/14 04:37:27;;;;;;;10.80;5.15;;;;;;;-0.39;100.00;97772.28;6108322;19;20082;-70
2024/01/14 04:39:27;;;;;;;10.63;5.50;;;;;;;-0.35;100.00;97788.72;6109812;19;20404;-70
2024/01/14 04:41:28;;;;;;;10.85;5.57;;;;;;;-0.34;100.00;97785.66;6106552;19;20002;-70
2024/01/14 04:43:28;;;;;;;12.52;5.95;;;;;;;-0.32;100.00;97783.44;6108803;19;20487;-70
2024/01/14 04:45:28;;;;;;;13.95;6.35;;;;;;;-0.31;100.00;97771.44;6108383;19;20017;-70
2024/01/14 04:47:29;;;;;;;10.25;5.20;;;;;;;-0.32;100.00;97764.44;6108612;19;20058;-70
2024/01/14 04:49:29;;;;;;;13.38;6.25;;;;;;;-0.28;100.00;97770.00;6108691;19;20450;-70
2024/01/14 04:51:29;;;;;;;8.00;5.32;;;;;;;-0.28;100.00;97770.78;6109402;19;20002;-70
2024/01/14 04:53:30;;;;;;;13.15;6.38;;;;;;;-0.30;100.00;97775.75;6109347;19;20006;-70
2024/01/14 04:55:30;;;;;;;8.80;5.43;;;;;;;-0.29;100.00;97773.84;6108879;19;20046;-70
2024/01/14 04:57:31;;;;;;;12.18;6.15;;;;;;;-0.32;100.00;97779.94;6107688;19;20380;-70
2024/01/14 04:59:31;;;;;;;11.63;6.55;;;;;;;-0.42;100.00;97780.25;6110326;19;20392;-70
2024/01/14 05:01:31;;;;;;;13.18;6.60;;;;;;;-0.46;100.00;97782.03;6109506;19;20108;-70
2024/01/14 05:03:31;;;;;;;11.50;5.63;;;;;;;-0.55;100.00;97782.06;6108415;19;20014;-70
2024/01/14 05:05:32;;;;;;;11.85;6.55;;;;;;;-0.62;100.00;97774.38;6109199;19;20007;-70
2024/01/14 05:07:32;;;;;;;11.25;6.78;;;;;;;-0.61;100.00;97786.06;6105928;19;20002;-70
2024/01/14 05:09:33;;;;;;;15.73;6.82;;;;;;;-0.66;100.00;97776.16;6109149;19;20007;-70
2024/01/14 05:11:33;;;;;;;14.50;6.82;;;;;;;-0.75;100.00;97777.28;6108778;19;20015;-70
2024/01/14 05:13:33;;;;;;;10.93;6.65;;;;;;;-0.79;100.00;97768.97;6108134;19;20095;-70
2024/01/14 05:15:34;;;;;;;14.13;7.15;;;;;;;-0.82;100.00;97757.97;6109483;19;20006;-70
2024/01/14 05:17:34;;;;;;;12.77;7.15;;;;;;;-0.83;100.00;97750.91;6107567;19;20496;-70
2024/01/14 05:19:39;;;;;;;15.23;6.93;;;;;;;-0.88;100.00;97751.91;6109405;19;20011;-70
2024/01/14 05:21:39;;;;;;;15.32;6.88;;;;;;;-0.89;100.00;97744.88;6108631;19;20344;-70
2024/01/14 05:23:39;;;;;;;16.00;7.32;;;;;;;-0.91;100.00;97742.47;6108462;19;20106;-70
2024/01/14 05:25:40;;;;;;;12.50;6.85;;;;;;;-0.92;100.00;97731.91;6106910;19;20013;-70
2024/01/14 05:27:42;;;;;;;15.00;7.43;;;;;;;-0.89;100.00;97736.72;6108934;19;19998;-70
2024/01/14 05:29:43;;;;;;;13.13;5.88;;;;;;;-0.91;100.00;97736.22;6107778;19;19994;-70
2024/01/14 05:31:43;;;;;;;13.73;6.63;;;;;;;-0.77;100.00;97730.63;6108230;19;20375;-69
2024/01/14 05:33:44;;;;;;;9.73;5.47;;;;;;;-0.80;100.00;97726.63;6106360;19;20380;-69
2024/01/14 05:35:44;;;;;;;10.70;5.43;;;;;;;-0.75;100.00;97725.66;6108296;19;20002;-70
2024/01/14 05:37:44;;;;;;;12.82;6.28;;;;;;;-0.76;100.00;97730.28;6106982;19;20007;-70
2024/01/14 05:39:45;;;;;;;10.80;5.72;;;;;;;-0.77;100.00;97719.75;6108348;19;20003;-70
2024/01/14 05:41:46;;;;;;;13.13;6.18;;;;;;;-0.81;100.00;97714.19;6108659;19;20887;-69
2024/01/14 05:43:46;;;;;;;14.30;6.45;;;;;;;-0.78;100.00;97726.31;6106621;19;20006;-69
2024/01/14 05:45:46;;;;;;;9.98;6.38;;;;;;;-0.76;100.00;97732.22;6107667;19;20411;-70
2024/01/14 05:47:46;;;;;;;12.68;5.63;;;;;;;-0.78;100.00;97726.31;6108964;19;20231;-70
2024/01/14 05:49:47;;;;;;;13.13;6.35;;;;;;;-0.84;100.00;97736.53;6108602;19;20335;-70
2024/01/14 05:51:47;;;;;;;13.35;5.70;;;;;;;-0.80;100.00;97745.66;6108527;19;20002;-70
2024/01/14 05:53:47;;;;;;;9.70;5.72;;;;;;;-0.80;100.00;97745.66;6106918;19;20007;-70
2024/01/14 05:55:48;;;;;;;11.38;6.20;;;;;;;-0.76;100.00;97749.31;6107567;19;20013;-70
2024/01/14 05:57:48;;;;;;;11.63;5.95;;;;;;;-0.70;100.00;97756.19;6106731;19;20011;-70
2024/01/14 05:59:48;;;;;;;11.55;6.28;;;;;;;-0.66;100.00;97753.63;6108163;19;20010;-70
2024/01/14 06:01:49;;;;;;;14.68;5.75;;;;;;;-0.74;100.00;97740.88;6108552;19;20003;-70
2024/01/14 06:03:49;;;;;;;14.23;7.32;;;;;;;-0.77;100.00;97731.41;6105261;19;19994;-70
2024/01/14 06:05:49;;;;;;;13.85;5.88;;;;;;;-0.76;100.00;97743.06;6106906;19;20002;-70
2024/01/14 06:07:49;;;;;;;12.18;6.07;;;;;;;-0.81;100.00;97741.34;6107655;19;20324;-70
2024/01/14 06:09:50;;;;;;;12.32;5.60;;;;;;;-0.79;100.00;97741.81;6106671;19;19995;-70
2024/01/14 06:11:50;;;;;;;12.95;6.72;;;;;;;-0.81;100.00;97737.84;6106503;19;20442;-70
2024/01/14 06:13:50;;;;;;;15.45;6.75;;;;;;;-0.91;100.00;97730.78;6106923;19;20009;-70
2024/01/14 06:15:51;;;;;;;20.15;8.13;;;;;;;-0.87;100.00;97739.91;6107252;19;19999;-70
2024/01/14 06:17:51;;;;;;;13.50;6.57;;;;;;;-0.89;100.00;97744.88;6107753;19;20028;-70
2024/01/14 06:19:51;;;;;;;12.13;6.40;;;;;;;-0.94;100.00;97732.25;6113327;19;20962;-70
2024/01/14 06:21:51;;;;;;;12.10;5.82;;;;;;;-1.01;100.00;97747.41;6112431;19;20007;-69
2024/01/14 06:23:52;;;;;;;12.15;6.40;;;;;;;-1.04;100.00;97745.34;6111095;19;19999;-70
2024/01/14 06:25:52;;;;;;;13.57;7.07;;;;;;;-1.02;100.00;97748.53;6111915;19;20002;-70
2024/01/14 06:27:53;;;;;;;10.70;5.30;;;;;;;-0.98;100.00;97744.06;6111896;19;20010;-70
2024/01/14 06:29:53;;;;;;;9.43;5.75;;;;;;;-0.99;100.00;97737.84;6113085;19;20003;-70
2024/01/14 06:31:53;;;;;;;9.57;5.63;;;;;;;-1.04;100.00;97735.28;6112712;19;20531;-70
2024/01/14 06:33:54;;;;;;;13.95;5.78;;;;;;;-0.97;100.00;97734.81;6111165;19;20002;-70
2024/01/14 06:35:54;;;;;;;9.10;5.80;;;;;;;-0.90;100.00;97730.50;6110596;19;19995;-70
2024/01/14 06:37:54;;;;;;;13.70;6.28;;;;;;;-0.92;100.00;97734.63;6111345;19;20066;-70
2024/01/14 06:39:54;;;;;;;10.43;5.60;;;;;;;-0.86;100.00;97733.34;6112207;19;20078;-70
2024/01/14 06:41:55;;;;;;;11.10;6.47;;;;;;;-0.79;100.00;97743.72;6111818;19;20070;-70
2024/01/14 06:43:55;;;;;;;10.32;6.13;;;;;;;-0.79;100.00;97732.88;6110423;19;20003;-70
2024/01/14 06:45:55;;;;;;;11.57;6.07;;;;;;;-0.83;100.00;97734.63;6111905;19;20393;-70
2024/01/14 06:47:56;;;;;;;11.60;5.88;;;;;;;-0.79;100.00;97725.53;6099287;19;20463;-70
2024/01/14 06:49:56;;;;;;;9.13;5.97;;;;;;;-0.81;100.00;97718.81;6110296;19;20003;-70
2024/01/14 06:51:56;;;;;;;13.27;6.68;;;;;;;-0.76;100.00;97716.72;6110756;19;20454;-70
2024/01/14 06:53:57;;;;;;;11.80;5.97;;;;;;;-0.74;100.00;97719.94;6109962;19;20058;-70
2024/01/14 06:55:57;;;;;;;10.30;5.55;;;;;;;-0.66;100.00;97734.63;6109528;19;20086;-70
2024/01/14 06:57:57;;;;;;;8.43;4.90;;;;;;;-0.69;100.00;97749.63;6110447;19;20011;-70
2024/01/14 07:00:05;;;;;;;12.38;6.10;;;;;;;-0.61;100.00;97718.91;6110729;19;20010;-70
2024/01/14 07:02:05;;;;;;;9.45;5.38;;;;;;;-0.58;100.00;97728.34;6108318;19;20014;-70
2024/01/14 07:04:05;;;;;;;11.73;6.05;;;;;;;-0.61;100.00;97723.56;6107513;19;20024;-70
2024/01/14 07:06:06;;;;;;;10.40;5.32;;;;;;;-0.64;100.00;97738.59;6110413;19;20476;-70
2024/01/14 07:08:06;;;;;;;9.77;5.38;;;;;;;-0.64;100.00;97735.88;6108053;19;20036;-70
2024/01/14 07:10:07;;;;;;;12.75;6.00;;;;;;;-0.69;100.00;97735.25;6109697;19;20006;-70
2024/01/14 07:12:08;;;;;;;10.23;5.60;;;;;;;-0.68;100.00;97737.63;6110297;19;20003;-70
2024/01/14 07:14:09;;;;;;;13.02;6.05;;;;;;;-0.70;100.00;97739.09;6109237;19;20036;-70
2024/01/14 07:16:09;;;;;;;10.20;5.38;;;;;;;-0.68;100.00;97724.06;6109079;19;20454;-70
2024/01/14 07:18:09;;;;;;;9.98;5.65;;;;;;;-0.61;100.00;97737.16;6109688;19;20002;-70
2024/01/14 07:20:11;;;;;;;10.48;4.75;;;;;;;-0.65;100.00;97739.72;6109183;19;20040;-70
2024/01/14 07:22:11;;;;;;;12.10;6.15;;;;;;;-0.57;100.00;97751.69;6110493;19;20028;-70
2024/01/14 07:24:12;;;;;;;12.13;5.57;;;;;;;-0.45;100.00;97753.75;6108626;19;20002;-70
2024/01/14 07:26:17;;;;;;;11.73;6.32;;;;;;;-0.42;100.00;97744.94;6108032;19;20022;-70
2024/01/14 07:28:18;;;;;;;10.13;5.65;;;;;;;-0.45;100.00;97749.09;6108373;19;20006;-69
2024/01/14 07:30:21;;;;;;;12.23;6.57;;;;;;;-0.53;100.00;97749.13;6105421;19;20030;-70
2024/01/14 07:32:21;;;;;;;11.32;6.20;;;;;;;-0.55;100.00;97752.16;6110327;19;20033;-70
2024/01/14 07:34:22;;;;;;;14.70;6.43;;;;;;;-0.59;100.00;97762.88;6108873;19;19995;-70
2024/01/14 07:36:23;;;;;;;16.60;7.65;;;;;;;-0.59;100.00;97762.06;6109374;19;20066;-70
2024/01/14 07:38:23;;;;;;;14.05;6.45;;;;;;;-0.65;100.00;97758.75;6110278;19;20920;-70
2024/01/14 07:40:23;;;;;;;12.13;6.07;;;;;;;-0.63;100.00;97766.56;6107235;19;20550;-70
2024/01/14 07:42:24;;;;;;;12.77;6.97;;;;;;;-0.67;100.00;97774.53;6109823;19;20009;-70
2024/01/14 07:44:24;;;;;;;11.57;6.22;;;;;;;-0.69;100.00;97776.78;6109361;19;20103;-70
2024/01/14 07:46:25;;;;;;;11.90;6.35;;;;;;;-0.71;100.00;97770.88;6109963;19;20024;-70
2024/01/14 07:48:26;;;;;;;12.07;5.55;;;;;;;-0.72;100.00;97768.50;6100353;19;20007;-71
2024/01/14 07:50:26;;;;;;;11.80;6.13;;;;;;;-0.69;100.00;97759.69;6094538;19;20054;-70
2024/01/14 07:52:27;;;;;;;14.30;6.28;;;;;;;-0.70;100.00;97768.97;6094975;19;20010;-70
2024/01/14 07:54:27;;;;;;;11.68;6.03;;;;;;;-0.68;100.00;97758.56;6093926;19;20343;-70
2024/01/14 07:56:28;;;;;;;13.20;7.35;;;;;;;-0.69;100.00;97757.78;6094209;19;20003;-70
2024/01/14 07:58:28;;;;;;;11.43;6.75;;;;;;;-0.66;100.00;97765.28;6096144;19;20926;-70
2024/01/14 08:00:29;;;;;;;9.32;5.57;;;;;;;-0.69;100.00;97755.06;6096455;19;20664;-70
2024/01/14 08:02:29;;;;;;;12.27;6.00;;;;;;;-0.71;100.00;97751.88;6095878;19;20002;-70
2024/01/14 08:04:29;;;;;;;10.85;5.57;;;;;;;-0.69;100.00;97746.91;6093520;19;20208;-70
2024/01/14 08:06:29;;;;;;;11.95;6.55;;;;;;;-0.69;100.00;97754.25;6095171;19;20010;-70
2024/01/14 08:08:30;;;;;;;10.60;5.60;;;;;;;-0.70;100.00;97748.03;6095165;19;20009;-70
2024/01/14 08:10:31;;;;;;;11.43;6.68;;;;;;;-0.67;100.00;97752.00;6096458;19;20846;-70
2024/01/14 08:12:32;;;;;;;10.68;5.60;;;;;;;-0.65;100.00;97745.16;6096347;19;20331;-70
2024/01/14 08:14:32;;;;;;;9.30;4.97;;;;;;;-0.63;100.00;97748.34;6094457;19;20042;-70
2024/01/14 08:16:32;;;;;;;9.68;5.30;;;;;;;-0.65;100.00;97734.28;6095585;19;20010;-70
2024/01/14 08:18:33;;;;;;;9.15;5.25;;;;;;;-0.63;100.00;97733.97;6093700;19;20610;-70
2024/01/14 08:20:34;;;;;;;10.18;5.68;;;;;;;-0.59;100.00;97732.97;6093853;19;20007;-70
2024/01/14 08:22:34;;;;;;;10.80;5.45;;;;;;;-0.53;100.00;97739.03;6095607;19;20585;-70
2024/01/14 08:24:34;;;;;;;10.98;5.78;;;;;;;-0.51;100.00;97736.78;6093993;19;20017;-70
2024/01/14 08:26:43;;;;;;;11.23;5.60;;;;;;;-0.50;100.00;97724.81;6094438;19;20379;-70
2024/01/14 08:28:44;;;;;;;9.60;5.38;;;;;;;-0.46;100.00;97728.47;6094770;19;20040;-70
2024/01/14 08:30:44;;;;;;;9.75;5.55;;;;;;;-0.40;100.00;97724.47;6095417;19;20006;-70
2024/01/14 08:32:44;;;;;;;10.85;5.43;;;;;;;-0.35;100.00;97716.13;6094888;19;20011;-70
2024/01/14 08:34:45;;;;;;;10.25;5.60;;;;;;;-0.33;100.00;97711.19;6093723;19;20108;-70
2024/01/14 08:36:45;;;;;;;10.43;5.47;;;;;;;-0.30;100.00;97707.81;6095105;19;20006;-70
2024/01/14 08:38:45;;;;;;;10.65;5.57;;;;;;;-0.33;100.00;97708.47;6094929;19;20052;-70
2024/01/14 08:40:46;;;;;;;11.43;6.65;;;;;;;-0.30;100.00;97704.28;6095839;19;20003;-70
2024/01/14 08:42:48;;;;;;;9.95;6.20;;;;;;;-0.33;100.00;97705.75;6094929;19;20003;-70
2024/01/14 08:44:48;;;;;;;12.32;6.40;;;;;;;-0.27;100.00;97687.31;6094559;19;20017;-70
2024/01/14 08:46:48;;;;;;;14.68;7.63;;;;;;;-0.25;100.00;97695.94;6093217;19;20010;-70
2024/01/14 08:48:49;;;;;;;12.00;6.55;;;;;;;-0.23;100.00;97685.56;6102394;19;20034;-70
2024/01/14 08:50:49;;;;;;;10.52;6.07;;;;;;;-0.30;100.00;97693.41;6108075;19;20367;-70
2024/01/14 08:52:49;;;;;;;10.38;6.63;;;;;;;-0.21;100.00;97694.19;6109792;19;20002;-70
2024/01/14 08:54:49;;;;;;;12.02;6.70;;;;;;;-0.25;100.00;97692.41;6106834;19;20007;-70
2024/01/14 08:56:50;;;;;;;11.35;7.07;;;;;;;-0.27;100.00;97684.59;6109597;19;20018;-70
2024/01/14 08:58:50;;;;;;;13.48;7.10;;;;;;;-0.25;100.00;97687.00;6107902;19;20026;-70
2024/01/14 09:00:50;;;;;;;9.55;6.07;;;;;;;-0.23;100.00;97692.91;6110227;19;19999;-70
2024/01/14 09:02:51;;;;;;;12.90;6.93;;;;;;;-0.23;100.00;97680.13;6108400;19;20395;-70
2024/01/14 09:04:51;;;;;;;11.27;6.57;;;;;;;-0.20;100.00;97684.09;6107782;19;19995;-70
2024/01/14 09:06:52;;;;;;;10.43;6.05;;;;;;;-0.20;100.00;97684.09;6109340;19;20010;-70
2024/01/14 09:08:52;;;;;;;13.30;7.30;;;;;;;-0.21;100.00;97686.03;6108280;19;20511;-70
2024/01/14 09:10:52;;;;;;;10.43;5.90;;;;;;;-0.17;100.00;97692.38;6109144;19;20062;-70
2024/01/14 09:12:52;;;;;;;12.88;6.30;;;;;;;-0.20;100.00;97701.22;6109903;19;19998;-70
2024/01/14 09:14:53;;;;;;;11.65;6.43;;;;;;;-0.15;100.00;97694.81;6106796;19;20055;-70